sensor_id;sensor_type;location;lat;lon;timestamp;temperature;humidity
20985;DHT22;10651;47.552;7.606;2023-09-30T05:48:28;17.50;99.90
20985;DHT22;10651;47.552;7.606;2023-09-30T05:51:06;17.50;99.90
20985;DHT22;10651;47.552;7.606;2023-09-30T05:53:38;17.50;99.90
20985;DHT22;10651;47.552;7.606;2023-09-30T05:56:15;17.50;99.90
20985;DHT22;10651;47.552;7.606;2023-09-30T05:58:44;17.50;99.90
20985;DHT22;10651;47.552;7.606;2023-09-30T06:01:21;17.40;99.90
20985;DHT22;10651;47.552;7.606;2023-09-30T06:03:53;17.40;99.90
20985;DHT22;10651;47.552;7.606;2023-09-30T06:06:22;17.40;99.90
20985;DHT22;10651;47.552;7.606;2023-09-30T06:08:57;17.40;99.90
20985;DHT22;10651;47.552;7.606;2023-09-30T06:11:28;17.50;99.90
20985;DHT22;10651;47.552;7.606;2023-09-30T06:13:57;17.40;99.90
20985;DHT22;10651;47.552;7.606;2023-09-30T06:16:32;17.50;99.90
20985;DHT22;10651;47.552;7.606;2023-09-30T06:19:04;17.60;99.90
20985;DHT22;10651;47.552;7.606;2023-09-30T06:21:38;17.60;99.90
20985;DHT22;10651;47.552;7.606;2023-09-30T06:24:05;17.70;99.90
20985;DHT22;10651;47.552;7.606;2023-09-30T06:26:44;17.70;99.90
20985;DHT22;10651;47.552;7.606;2023-09-30T06:29:18;17.60;99.90
20985;DHT22;10651;47.552;7.606;2023-09-30T06:31:54;17.70;99.90
20985;DHT22;10651;47.552;7.606;2023-09-30T06:38:18;17.80;99.90
20985;DHT22;10651;47.552;7.606;2023-09-30T06:41:00;18.00;99.90
20985;DHT22;10651;47.552;7.606;2023-09-30T06:55:46;18.20;99.90
20985;DHT22;10651;47.552;7.606;2023-09-30T06:58:12;18.30;99.90
20985;DHT22;10651;47.552;7.606;2023-09-30T07:00:53;18.30;99.90
20985;DHT22;10651;47.552;7.606;2023-09-30T07:06:00;18.40;99.90
20985;DHT22;10651;47.552;7.606;2023-09-30T07:11:19;18.60;99.90
20985;DHT22;10651;47.552;7.606;2023-09-30T07:14:01;18.70;99.90
20985;DHT22;10651;47.552;7.606;2023-09-30T07:16:38;18.80;99.90
20985;DHT22;10651;47.552;7.606;2023-09-30T07:19:12;18.90;99.90
20985;DHT22;10651;47.552;7.606;2023-09-30T07:21:44;18.90;99.90
20985;DHT22;10651;47.552;7.606;2023-09-30T07:24:12;18.90;99.90
20985;DHT22;10651;47.552;7.606;2023-09-30T07:26:38;19.00;99.90
20985;DHT22;10651;47.552;7.606;2023-09-30T07:29:03;19.10;99.90
20985;DHT22;10651;47.552;7.606;2023-09-30T07:34:05;19.10;99.90
20985;DHT22;10651;47.552;7.606;2023-09-30T07:36:31;19.20;99.90
20985;DHT22;10651;47.552;7.606;2023-09-30T07:41:26;19.30;99.90
20985;DHT22;10651;47.552;7.606;2023-09-30T07:43:52;19.30;99.90
20985;DHT22;10651;47.552;7.606;2023-09-30T07:46:18;19.30;99.90
20985;DHT22;10651;47.552;7.606;2023-09-30T07:48:43;19.20;99.90
20985;DHT22;10651;47.552;7.606;2023-09-30T07:51:09;19.40;99.90
20985;DHT22;10651;47.552;7.606;2023-09-30T07:53:39;19.60;99.90
20985;DHT22;10651;47.552;7.606;2023-09-30T07:56:06;19.90;99.90
20985;DHT22;10651;47.552;7.606;2023-09-30T07:58:32;20.10;99.90
20985;DHT22;10651;47.552;7.606;2023-09-30T08:00:58;20.10;99.90
20985;DHT22;10651;47.552;7.606;2023-09-30T08:03:25;20.20;99.90
20985;DHT22;10651;47.552;7.606;2023-09-30T08:05:51;20.20;99.90
20985;DHT22;10651;47.552;7.606;2023-09-30T08:08:17;20.30;99.90
20985;DHT22;10651;47.552;7.606;2023-09-30T08:10:43;20.40;99.90
20985;DHT22;10651;47.552;7.606;2023-09-30T08:13:09;20.40;99.90
20985;DHT22;10651;47.552;7.606;2023-09-30T08:15:35;20.40;99.90
20985;DHT22;10651;47.552;7.606;2023-09-30T08:39:21;21.30;99.90
20985;DHT22;10651;47.552;7.606;2023-09-30T08:41:48;21.60;99.90
20985;DHT22;10651;47.552;7.606;2023-09-30T08:44:14;21.70;99.90
20985;DHT22;10651;47.552;7.606;2023-09-30T08:46:40;21.90;99.90
20985;DHT22;10651;47.552;7.606;2023-09-30T08:49:07;22.10;99.90
20985;DHT22;10651;47.552;7.606;2023-09-30T08:51:35;22.60;99.90
20985;DHT22;10651;47.552;7.606;2023-09-30T08:54:01;22.70;99.90
20985;DHT22;10651;47.552;7.606;2023-09-30T08:56:30;22.70;99.90
20985;DHT22;10651;47.552;7.606;2023-09-30T08:58:59;22.50;99.90
20985;DHT22;10651;47.552;7.606;2023-09-30T09:01:29;22.10;99.90
20985;DHT22;10651;47.552;7.606;2023-09-30T09:03:56;21.90;99.90
20985;DHT22;10651;47.552;7.606;2023-09-30T09:06:24;21.80;99.90
20985;DHT22;10651;47.552;7.606;2023-09-30T09:08:50;21.60;99.90
20985;DHT22;10651;47.552;7.606;2023-09-30T09:11:17;21.50;99.90
20985;DHT22;10651;47.552;7.606;2023-09-30T09:13:51;21.50;99.90
20985;DHT22;10651;47.552;7.606;2023-09-30T09:16:26;21.60;99.90
20985;DHT22;10651;47.552;7.606;2023-09-30T09:18:52;21.90;99.90
20985;DHT22;10651;47.552;7.606;2023-09-30T09:21:21;21.90;99.90
20985;DHT22;10651;47.552;7.606;2023-09-30T09:23:52;22.10;99.90
20985;DHT22;10651;47.552;7.606;2023-09-30T09:26:29;22.40;99.90
20985;DHT22;10651;47.552;7.606;2023-09-30T09:29:03;22.30;99.90
20985;DHT22;10651;47.552;7.606;2023-09-30T09:31:32;22.60;99.90
20985;DHT22;10651;47.552;7.606;2023-09-30T09:34:00;22.80;99.90
20985;DHT22;10651;47.552;7.606;2023-09-30T09:36:45;23.10;99.90
20985;DHT22;10651;47.552;7.606;2023-09-30T09:39:14;23.70;99.90
20985;DHT22;10651;47.552;7.606;2023-09-30T09:41:53;24.20;99.90
20985;DHT22;10651;47.552;7.606;2023-09-30T09:44:20;24.60;99.90
20985;DHT22;10651;47.552;7.606;2023-09-30T09:46:51;26.70;99.90
20985;DHT22;10651;47.552;7.606;2023-09-30T09:49:17;28.90;99.90
20985;DHT22;10651;47.552;7.606;2023-09-30T09:51:45;30.00;99.90
20985;DHT22;10651;47.552;7.606;2023-09-30T09:54:17;30.90;99.90
20985;DHT22;10651;47.552;7.606;2023-09-30T09:56:46;32.30;99.90
20985;DHT22;10651;47.552;7.606;2023-09-30T09:59:12;33.60;99.90
20985;DHT22;10651;47.552;7.606;2023-09-30T10:01:40;34.30;99.90
20985;DHT22;10651;47.552;7.606;2023-09-30T10:04:07;34.50;99.90
20985;DHT22;10651;47.552;7.606;2023-09-30T10:06:36;35.40;99.90
20985;DHT22;10651;47.552;7.606;2023-09-30T10:09:09;36.20;99.90
20985;DHT22;10651;47.552;7.606;2023-09-30T10:11:37;36.80;98.40
20985;DHT22;10651;47.552;7.606;2023-09-30T10:14:03;37.10;96.70
20985;DHT22;10651;47.552;7.606;2023-09-30T10:19:12;37.90;93.50
20985;DHT22;10651;47.552;7.606;2023-09-30T10:21:38;38.00;90.80
20985;DHT22;10651;47.552;7.606;2023-09-30T10:35:21;40.10;82.10
20985;DHT22;10651;47.552;7.606;2023-09-30T10:40:52;40.00;79.30
20985;DHT22;10651;47.552;7.606;2023-09-30T10:43:38;40.60;79.00
20985;DHT22;10651;47.552;7.606;2023-09-30T10:48:52;41.20;73.70
20985;DHT22;10651;47.552;7.606;2023-09-30T10:51:19;41.40;73.20
20985;DHT22;10651;47.552;7.606;2023-09-30T10:53:52;41.70;70.20
20985;DHT22;10651;47.552;7.606;2023-09-30T10:56:22;42.00;70.80
20985;DHT22;10651;47.552;7.606;2023-09-30T10:58:52;42.40;70.20
20985;DHT22;10651;47.552;7.606;2023-09-30T11:01:22;42.30;66.50
20985;DHT22;10651;47.552;7.606;2023-09-30T11:03:49;42.30;66.50
20985;DHT22;10651;47.552;7.606;2023-09-30T11:06:20;37.40;70.20
20985;DHT22;10651;47.552;7.606;2023-09-30T11:08:55;34.60;76.80
20985;DHT22;10651;47.552;7.606;2023-09-30T11:11:38;34.00;82.80
20985;DHT22;10651;47.552;7.606;2023-09-30T11:16:43;38.40;73.60
20985;DHT22;10651;47.552;7.606;2023-09-30T11:19:12;39.10;73.40
20985;DHT22;10651;47.552;7.606;2023-09-30T11:21:39;41.20;69.40
20985;DHT22;10651;47.552;7.606;2023-09-30T11:24:06;42.30;67.50
20985;DHT22;10651;47.552;7.606;2023-09-30T11:26:33;43.30;63.70
20985;DHT22;10651;47.552;7.606;2023-09-30T11:29:09;43.50;63.90
20985;DHT22;10651;47.552;7.606;2023-09-30T11:31:44;43.00;63.60
20985;DHT22;10651;47.552;7.606;2023-09-30T11:34:11;41.50;64.90
20985;DHT22;10651;47.552;7.606;2023-09-30T11:36:53;42.70;64.40
20985;DHT22;10651;47.552;7.606;2023-09-30T11:39:37;41.30;64.70
20985;DHT22;10651;47.552;7.606;2023-09-30T11:42:15;38.70;66.10
20985;DHT22;10651;47.552;7.606;2023-09-30T11:44:45;36.80;69.70
20985;DHT22;10651;47.552;7.606;2023-09-30T11:47:12;37.10;69.20
20985;DHT22;10651;47.552;7.606;2023-09-30T11:49:40;37.60;69.00
20985;DHT22;10651;47.552;7.606;2023-09-30T11:52:10;39.90;67.60
20985;DHT22;10651;47.552;7.606;2023-09-30T11:54:38;41.50;64.30
20985;DHT22;10651;47.552;7.606;2023-09-30T11:57:10;43.00;62.10
20985;DHT22;10651;47.552;7.606;2023-09-30T11:59:39;42.60;60.70
20985;DHT22;10651;47.552;7.606;2023-09-30T12:02:10;43.40;61.20
20985;DHT22;10651;47.552;7.606;2023-09-30T12:04:36;40.90;61.40
20985;DHT22;10651;47.552;7.606;2023-09-30T12:07:42;39.70;63.80
20985;DHT22;10651;47.552;7.606;2023-09-30T12:11:05;40.80;64.40
20985;DHT22;10651;47.552;7.606;2023-09-30T12:13:35;43.20;61.60
20985;DHT22;10651;47.552;7.606;2023-09-30T12:16:10;41.30;61.00
20985;DHT22;10651;47.552;7.606;2023-09-30T12:18:41;39.70;63.00
20985;DHT22;10651;47.552;7.606;2023-09-30T12:21:15;41.80;63.90
20985;DHT22;10651;47.552;7.606;2023-09-30T12:23:45;39.80;61.00
20985;DHT22;10651;47.552;7.606;2023-09-30T12:26:12;36.00;66.40
20985;DHT22;10651;47.552;7.606;2023-09-30T12:28:37;33.40;70.40
20985;DHT22;10651;47.552;7.606;2023-09-30T12:31:06;32.80;74.60
20985;DHT22;10651;47.552;7.606;2023-09-30T12:33:32;35.60;75.30
20985;DHT22;10651;47.552;7.606;2023-09-30T12:35:58;36.70;70.80
20985;DHT22;10651;47.552;7.606;2023-09-30T12:38:26;39.10;67.80
20985;DHT22;10651;47.552;7.606;2023-09-30T12:40:54;40.10;64.70
20985;DHT22;10651;47.552;7.606;2023-09-30T12:43:21;37.70;64.30
20985;DHT22;10651;47.552;7.606;2023-09-30T12:45:47;36.10;67.30
20985;DHT22;10651;47.552;7.606;2023-09-30T12:48:14;36.60;68.20
20985;DHT22;10651;47.552;7.606;2023-09-30T12:50:43;39.30;63.50
20985;DHT22;10651;47.552;7.606;2023-09-30T12:53:09;39.60;63.30
20985;DHT22;10651;47.552;7.606;2023-09-30T12:55:35;40.50;61.70
20985;DHT22;10651;47.552;7.606;2023-09-30T12:58:01;41.20;61.00
20985;DHT22;10651;47.552;7.606;2023-09-30T13:00:27;42.20;59.70
20985;DHT22;10651;47.552;7.606;2023-09-30T13:02:56;42.90;57.70
20985;DHT22;10651;47.552;7.606;2023-09-30T13:05:23;41.20;57.40
20985;DHT22;10651;47.552;7.606;2023-09-30T13:07:49;36.70;61.00
20985;DHT22;10651;47.552;7.606;2023-09-30T13:10:14;34.30;66.10
20985;DHT22;10651;47.552;7.606;2023-09-30T13:12:40;32.50;67.80
20985;DHT22;10651;47.552;7.606;2023-09-30T13:15:06;31.80;72.10
20985;DHT22;10651;47.552;7.606;2023-09-30T13:17:34;33.00;71.10
20985;DHT22;10651;47.552;7.606;2023-09-30T13:20:00;33.80;70.80
20985;DHT22;10651;47.552;7.606;2023-09-30T13:22:30;33.10;68.40
20985;DHT22;10651;47.552;7.606;2023-09-30T13:24:57;34.30;69.40
20985;DHT22;10651;47.552;7.606;2023-09-30T13:27:23;34.20;67.90
20985;DHT22;10651;47.552;7.606;2023-09-30T13:29:48;34.90;69.00
20985;DHT22;10651;47.552;7.606;2023-09-30T13:32:14;34.30;67.40
20985;DHT22;10651;47.552;7.606;2023-09-30T13:34:40;35.30;67.00
20985;DHT22;10651;47.552;7.606;2023-09-30T13:37:05;33.50;67.00
20985;DHT22;10651;47.552;7.606;2023-09-30T13:39:31;32.90;66.90
20985;DHT22;10651;47.552;7.606;2023-09-30T13:41:59;33.00;70.00
20985;DHT22;10651;47.552;7.606;2023-09-30T13:44:25;32.20;69.20
20985;DHT22;10651;47.552;7.606;2023-09-30T13:46:50;31.10;71.70
20985;DHT22;10651;47.552;7.606;2023-09-30T13:49:16;30.50;76.20
20985;DHT22;10651;47.552;7.606;2023-09-30T13:51:43;30.00;75.70
20985;DHT22;10651;47.552;7.606;2023-09-30T13:54:08;29.80;77.10
20985;DHT22;10651;47.552;7.606;2023-09-30T13:56:34;29.40;78.90
20985;DHT22;10651;47.552;7.606;2023-09-30T13:59:00;29.30;80.60
20985;DHT22;10651;47.552;7.606;2023-09-30T14:01:26;29.00;82.10
20985;DHT22;10651;47.552;7.606;2023-09-30T14:03:52;28.70;82.90
20985;DHT22;10651;47.552;7.606;2023-09-30T14:06:22;28.40;85.40
20985;DHT22;10651;47.552;7.606;2023-09-30T14:08:48;28.30;85.80
20985;DHT22;10651;47.552;7.606;2023-09-30T14:11:13;28.50;87.70
20985;DHT22;10651;47.552;7.606;2023-09-30T14:13:39;29.70;84.20
20985;DHT22;10651;47.552;7.606;2023-09-30T14:16:05;32.00;80.60
20985;DHT22;10651;47.552;7.606;2023-09-30T14:18:32;34.00;77.00
20985;DHT22;10651;47.552;7.606;2023-09-30T14:20:59;34.00;73.00
20985;DHT22;10651;47.552;7.606;2023-09-30T14:23:28;33.40;73.80
20985;DHT22;10651;47.552;7.606;2023-09-30T14:25:55;32.30;74.60
20985;DHT22;10651;47.552;7.606;2023-09-30T14:28:25;31.00;77.50
20985;DHT22;10651;47.552;7.606;2023-09-30T14:30:50;30.10;79.70
20985;DHT22;10651;47.552;7.606;2023-09-30T14:33:16;29.50;81.30
20985;DHT22;10651;47.552;7.606;2023-09-30T14:35:42;29.00;82.90
20985;DHT22;10651;47.552;7.606;2023-09-30T14:38:11;28.80;84.80
20985;DHT22;10651;47.552;7.606;2023-09-30T14:40:40;28.80;85.40
20985;DHT22;10651;47.552;7.606;2023-09-30T14:43:09;28.30;84.70
20985;DHT22;10651;47.552;7.606;2023-09-30T14:45:39;27.90;88.70
20985;DHT22;10651;47.552;7.606;2023-09-30T14:48:08;27.80;89.50
20985;DHT22;10651;47.552;7.606;2023-09-30T14:50:35;27.40;89.30
20985;DHT22;10651;47.552;7.606;2023-09-30T14:53:04;27.20;90.90
20985;DHT22;10651;47.552;7.606;2023-09-30T14:55:33;27.30;90.80
20985;DHT22;10651;47.552;7.606;2023-09-30T14:57:59;27.50;91.00
20985;DHT22;10651;47.552;7.606;2023-09-30T15:00:35;27.60;90.30
20985;DHT22;10651;47.552;7.606;2023-09-30T15:03:01;27.80;91.00
20985;DHT22;10651;47.552;7.606;2023-09-30T15:05:31;27.50;90.80
20985;DHT22;10651;47.552;7.606;2023-09-30T15:11:17;27.20;93.10
20985;DHT22;10651;47.552;7.606;2023-09-30T15:13:47;27.10;98.50
20985;DHT22;10651;47.552;7.606;2023-09-30T15:16:26;26.70;95.10
20985;DHT22;10651;47.552;7.606;2023-09-30T15:18:52;26.50;95.20
20985;DHT22;10651;47.552;7.606;2023-09-30T15:21:24;26.40;96.30
20985;DHT22;10651;47.552;7.606;2023-09-30T15:23:50;26.40;96.50
20985;DHT22;10651;47.552;7.606;2023-09-30T15:26:16;26.30;96.00
20985;DHT22;10651;47.552;7.606;2023-09-30T15:28:42;26.10;95.90
20985;DHT22;10651;47.552;7.606;2023-09-30T15:34:17;26.00;97.90
20985;DHT22;10651;47.552;7.606;2023-09-30T15:40:08;25.60;96.50
20985;DHT22;10651;47.552;7.606;2023-09-30T15:53:09;24.80;99.40
20985;DHT22;10651;47.552;7.606;2023-09-30T15:56:23;24.60;99.20
20985;DHT22;10651;47.552;7.606;2023-09-30T15:59:11;24.50;99.30
20985;DHT22;10651;47.552;7.606;2023-09-30T16:01:37;24.50;99.60
20985;DHT22;10651;47.552;7.606;2023-09-30T16:04:08;24.40;99.90
20985;DHT22;10651;47.552;7.606;2023-09-30T16:06:34;24.40;99.90
20985;DHT22;10651;47.552;7.606;2023-09-30T16:09:03;24.40;99.90
20985;DHT22;10651;47.552;7.606;2023-09-30T16:11:29;24.40;99.90
20985;DHT22;10651;47.552;7.606;2023-09-30T16:17:53;24.20;99.90
20985;DHT22;10651;47.552;7.606;2023-09-30T16:25:18;24.10;99.90
20985;DHT22;10651;47.552;7.606;2023-09-30T16:27:56;23.80;99.90
20985;DHT22;10651;47.552;7.606;2023-09-30T16:30:48;23.70;99.90
20985;DHT22;10651;47.552;7.606;2023-09-30T16:33:25;23.70;99.90
20985;DHT22;10651;47.552;7.606;2023-09-30T16:35:55;23.70;99.90
20985;DHT22;10651;47.552;7.606;2023-09-30T16:38:23;23.70;99.90
20985;DHT22;10651;47.552;7.606;2023-09-30T16:44:10;23.60;99.90
20985;DHT22;10651;47.552;7.606;2023-09-30T16:50:36;23.50;99.90
20985;DHT22;10651;47.552;7.606;2023-09-30T16:53:31;23.40;99.90
20985;DHT22;10651;47.552;7.606;2023-09-30T16:56:02;23.30;99.90
20985;DHT22;10651;47.552;7.606;2023-09-30T16:58:28;23.20;99.90
20985;DHT22;10651;47.552;7.606;2023-09-30T17:00:54;23.20;99.90
20985;DHT22;10651;47.552;7.606;2023-09-30T17:03:27;23.10;99.90
20985;DHT22;10651;47.552;7.606;2023-09-30T17:06:04;22.90;99.90
20985;DHT22;10651;47.552;7.606;2023-09-30T17:11:36;22.80;99.90
20985;DHT22;10651;47.552;7.606;2023-09-30T17:20:02;22.60;99.90
20985;DHT22;10651;47.552;7.606;2023-09-30T17:22:41;22.60;99.90
20985;DHT22;10651;47.552;7.606;2023-09-30T17:25:07;22.50;99.90
20985;DHT22;10651;47.552;7.606;2023-09-30T17:27:34;22.50;99.90
20985;DHT22;10651;47.552;7.606;2023-09-30T17:30:01;22.40;99.90
20985;DHT22;10651;47.552;7.606;2023-09-30T17:32:41;22.30;99.90
20985;DHT22;10651;47.552;7.606;2023-09-30T17:35:13;22.10;99.90
20985;DHT22;10651;47.552;7.606;2023-09-30T17:38:11;22.00;99.90
20985;DHT22;10651;47.552;7.606;2023-09-30T17:40:40;21.90;99.90
20985;DHT22;10651;47.552;7.606;2023-09-30T17:43:08;21.90;99.90
20985;DHT22;10651;47.552;7.606;2023-09-30T17:45:44;21.80;99.90
20985;DHT22;10651;47.552;7.606;2023-09-30T17:48:10;21.70;99.90
20985;DHT22;10651;47.552;7.606;2023-09-30T17:50:40;21.60;99.90
20985;DHT22;10651;47.552;7.606;2023-09-30T17:53:06;21.60;99.90
20985;DHT22;10651;47.552;7.606;2023-09-30T17:55:36;21.40;99.90
20985;DHT22;10651;47.552;7.606;2023-09-30T17:58:03;21.40;99.90
20985;DHT22;10651;47.552;7.606;2023-09-30T18:00:29;21.50;99.90
20985;DHT22;10651;47.552;7.606;2023-09-30T18:10:41;21.30;99.90
20985;DHT22;10651;47.552;7.606;2023-09-30T18:13:08;21.00;99.90
20985;DHT22;10651;47.552;7.606;2023-09-30T18:15:35;21.00;99.90
20985;DHT22;10651;47.552;7.606;2023-09-30T18:18:01;21.00;99.90
20985;DHT22;10651;47.552;7.606;2023-09-30T18:20:27;20.90;99.90
20985;DHT22;10651;47.552;7.606;2023-09-30T18:22:52;20.90;99.90
20985;DHT22;10651;47.552;7.606;2023-09-30T18:25:18;20.90;99.90
20985;DHT22;10651;47.552;7.606;2023-09-30T18:27:43;20.90;99.90
20985;DHT22;10651;47.552;7.606;2023-09-30T18:30:09;20.80;99.90
20985;DHT22;10651;47.552;7.606;2023-09-30T18:32:35;20.80;99.90
20985;DHT22;10651;47.552;7.606;2023-09-30T18:35:01;20.70;99.90
20985;DHT22;10651;47.552;7.606;2023-09-30T18:37:27;20.70;99.90
20985;DHT22;10651;47.552;7.606;2023-09-30T18:39:53;20.50;99.90
20985;DHT22;10651;47.552;7.606;2023-09-30T18:42:22;20.40;99.90
20985;DHT22;10651;47.552;7.606;2023-09-30T18:44:48;20.30;99.90
20985;DHT22;10651;47.552;7.606;2023-09-30T18:47:13;20.30;99.90
20985;DHT22;10651;47.552;7.606;2023-09-30T18:49:39;20.40;99.90
20985;DHT22;10651;47.552;7.606;2023-09-30T18:52:06;20.30;99.90
20985;DHT22;10651;47.552;7.606;2023-09-30T18:54:32;20.30;99.90
20985;DHT22;10651;47.552;7.606;2023-09-30T18:56:57;20.20;99.90
20985;DHT22;10651;47.552;7.606;2023-09-30T18:59:23;20.30;99.90
20985;DHT22;10651;47.552;7.606;2023-09-30T19:01:49;20.20;99.90
20985;DHT22;10651;47.552;7.606;2023-09-30T19:04:16;20.20;99.90
20985;DHT22;10651;47.552;7.606;2023-09-30T19:06:42;20.10;99.90
20985;DHT22;10651;47.552;7.606;2023-09-30T19:09:08;20.00;99.90
20985;DHT22;10651;47.552;7.606;2023-09-30T19:11:35;19.90;99.90
20985;DHT22;10651;47.552;7.606;2023-09-30T19:14:01;19.80;99.90
20985;DHT22;10651;47.552;7.606;2023-09-30T19:16:29;19.80;99.90
20985;DHT22;10651;47.552;7.606;2023-09-30T19:18:55;19.80;99.90
20985;DHT22;10651;47.552;7.606;2023-09-30T19:21:21;19.70;99.90
20985;DHT22;10651;47.552;7.606;2023-09-30T19:23:47;19.70;99.90
20985;DHT22;10651;47.552;7.606;2023-09-30T19:26:13;19.70;99.90
20985;DHT22;10651;47.552;7.606;2023-09-30T19:28:40;19.70;99.90
20985;DHT22;10651;47.552;7.606;2023-09-30T19:31:13;19.60;99.90
20985;DHT22;10651;47.552;7.606;2023-09-30T19:33:39;19.50;99.90
20985;DHT22;10651;47.552;7.606;2023-09-30T19:36:11;19.40;99.90
20985;DHT22;10651;47.552;7.606;2023-09-30T19:38:41;19.40;99.90
20985;DHT22;10651;47.552;7.606;2023-09-30T19:41:14;19.40;99.90
20985;DHT22;10651;47.552;7.606;2023-09-30T19:43:41;19.30;99.90
20985;DHT22;10651;47.552;7.606;2023-09-30T19:46:07;19.20;99.90
20985;DHT22;10651;47.552;7.606;2023-09-30T19:48:32;19.20;99.90
20985;DHT22;10651;47.552;7.606;2023-09-30T19:50:58;19.20;99.90
20985;DHT22;10651;47.552;7.606;2023-09-30T19:53:24;19.20;99.90
20985;DHT22;10651;47.552;7.606;2023-09-30T19:55:49;19.20;99.90
20985;DHT22;10651;47.552;7.606;2023-09-30T19:58:17;19.20;99.90
20985;DHT22;10651;47.552;7.606;2023-09-30T20:00:53;19.10;99.90
20985;DHT22;10651;47.552;7.606;2023-09-30T20:03:41;19.00;99.90
20985;DHT22;10651;47.552;7.606;2023-09-30T20:06:19;19.00;99.90
20985;DHT22;10651;47.552;7.606;2023-09-30T20:09:13;18.90;99.90
20985;DHT22;10651;47.552;7.606;2023-09-30T20:11:41;18.90;99.90
20985;DHT22;10651;47.552;7.606;2023-09-30T20:14:12;18.90;99.90
20985;DHT22;10651;47.552;7.606;2023-09-30T20:16:45;18.80;99.90
20985;DHT22;10651;47.552;7.606;2023-09-30T20:24:54;18.80;99.90
20985;DHT22;10651;47.552;7.606;2023-09-30T20:27:29;18.80;99.90
20985;DHT22;10651;47.552;7.606;2023-09-30T20:30:02;18.80;99.90
20985;DHT22;10651;47.552;7.606;2023-09-30T20:32:34;18.80;99.90
20985;DHT22;10651;47.552;7.606;2023-09-30T20:35:02;18.80;99.90
20985;DHT22;10651;47.552;7.606;2023-09-30T20:40:15;18.60;99.90
20985;DHT22;10651;47.552;7.606;2023-09-30T20:42:41;18.60;99.90
20985;DHT22;10651;47.552;7.606;2023-09-30T20:45:13;18.60;99.90
20985;DHT22;10651;47.552;7.606;2023-09-30T20:48:16;18.50;99.90
20985;DHT22;10651;47.552;7.606;2023-09-30T20:50:48;18.50;99.90
20985;DHT22;10651;47.552;7.606;2023-09-30T20:53:16;18.50;99.90
20985;DHT22;10651;47.552;7.606;2023-09-30T20:55:42;18.40;99.90
20985;DHT22;10651;47.552;7.606;2023-09-30T20:58:22;18.30;99.90
20985;DHT22;10651;47.552;7.606;2023-09-30T21:01:06;18.30;99.90
20985;DHT22;10651;47.552;7.606;2023-09-30T21:04:15;18.30;99.90
